createdAt,value
2018-02-19T00:00:31.228Z,80.99
2018-02-19T00:01:20.317Z,81.41
2018-02-19T00:02:09.426Z,81.80
2018-02-19T00:02:58.511Z,82.03
2018-02-19T00:03:47.605Z,82.50
2018-02-19T00:04:36.683Z,81.73
2018-02-19T00:05:25.936Z,80.75
2018-02-19T00:06:14.996Z,80.56
2018-02-19T00:07:07.315Z,80.25
2018-02-19T00:07:56.362Z,80.29
2018-02-19T00:08:45.479Z,80.68
2018-02-19T00:09:34.535Z,80.82
2018-02-19T00:10:23.617Z,81.78
2018-02-19T00:11:12.662Z,82.20
2018-02-19T00:12:01.837Z,82.47
2018-02-19T00:12:50.896Z,82.80
2018-02-19T00:13:39.945Z,82.81
2018-02-19T00:14:29.011Z,82.70
2018-02-19T00:15:18.063Z,82.86
2018-02-19T00:16:07.121Z,83.09
2018-02-19T00:16:56.189Z,83.40
2018-02-19T00:17:45.297Z,83.51
2018-02-19T00:18:34.433Z,83.38
2018-02-19T00:19:23.491Z,83.31
2018-02-19T00:20:12.544Z,83.22
2018-02-19T00:21:01.598Z,82.96
2018-02-19T00:21:50.645Z,82.87
2018-02-19T00:22:39.704Z,82.56
2018-02-19T00:23:29.156Z,82.27
2018-02-19T00:24:18.202Z,81.88
2018-02-19T00:25:07.282Z,81.85
2018-02-19T00:25:56.345Z,81.92
2018-02-19T00:26:45.401Z,81.65
2018-02-19T00:27:34.484Z,81.53
2018-02-19T00:28:23.558Z,81.91
2018-02-19T00:29:12.602Z,81.62
2018-02-19T00:30:01.665Z,81.41
2018-02-19T00:30:50.812Z,80.96
2018-02-19T00:31:39.871Z,81.14
2018-02-19T00:32:28.918Z,81.13
2018-02-19T00:33:17.989Z,81.25
2018-02-19T00:34:07.044Z,81.71
2018-02-19T00:34:56.113Z,81.80
2018-02-19T00:35:45.237Z,81.98
2018-02-19T00:36:34.364Z,81.95
2018-02-19T00:37:23.437Z,82.09
2018-02-19T00:38:12.496Z,82.39
2018-02-19T00:39:01.541Z,82.88
2018-02-19T00:39:50.623Z,83.23
2018-02-19T00:40:39.723Z,83.31
2018-02-19T00:41:28.784Z,82.95
2018-02-19T00:42:18.072Z,82.86
2018-02-19T00:43:07.158Z,83.31
2018-02-19T00:43:56.214Z,83.32
2018-02-19T00:44:45.268Z,83.19
2018-02-19T00:45:34.335Z,83.33
2018-02-19T00:46:23.428Z,83.45
2018-02-19T00:47:12.485Z,83.37
2018-02-19T00:48:01.641Z,83.31
2018-02-19T00:48:50.785Z,83.14
2018-02-19T00:49:39.844Z,83.02
2018-02-19T00:50:28.895Z,83.03
2018-02-19T00:51:17.952Z,83.10
2018-02-19T00:52:07.018Z,83.22
2018-02-19T00:52:56.085Z,83.31
2018-02-19T00:53:47.143Z,83.53
2018-02-19T00:54:36.188Z,83.42
2018-02-19T00:55:25.636Z,83.08
2018-02-19T00:56:14.708Z,83.03
2018-02-19T00:57:03.786Z,82.79
2018-02-19T00:57:52.831Z,82.86
2018-02-19T00:58:41.886Z,82.84
2018-02-19T00:59:30.977Z,82.47
2018-02-19T01:00:20.234Z,81.82
2018-02-19T01:01:09.308Z,81.33
2018-02-19T01:01:58.360Z,81.02
2018-02-19T01:02:47.417Z,80.93
2018-02-19T01:03:36.480Z,80.95
2018-02-19T01:04:25.561Z,81.11
2018-02-19T01:05:14.765Z,81.42
2018-02-19T01:06:03.840Z,82.04
2018-02-19T01:06:52.937Z,82.64
2018-02-19T01:07:42.039Z,82.96
2018-02-19T01:08:31.143Z,83.14
2018-02-19T01:09:20.207Z,83.33
2018-02-19T01:10:09.496Z,83.42
2018-02-19T01:10:58.628Z,83.73
2018-02-19T01:11:47.684Z,83.96
2018-02-19T01:12:36.764Z,84.15
2018-02-19T01:13:25.828Z,84.38
2018-02-19T01:14:14.887Z,84.31
2018-02-19T01:15:03.955Z,84.64
2018-02-19T01:15:53.030Z,84.89
2018-02-19T01:16:42.643Z,85.14
2018-02-19T01:17:31.702Z,85.24
2018-02-19T01:18:20.779Z,85.34
2018-02-19T01:19:09.840Z,85.17
2018-02-19T01:19:58.896Z,85.18
2018-02-19T01:20:47.956Z,85.04
2018-02-19T01:21:37.138Z,85.03
2018-02-19T01:22:26.214Z,84.74
2018-02-19T01:23:15.270Z,84.60
2018-02-19T01:24:04.347Z,84.44
2018-02-19T01:24:53.409Z,84.57
2018-02-19T01:25:42.478Z,84.66
2018-02-19T01:26:31.545Z,84.89
2018-02-19T01:27:20.676Z,84.93
2018-02-19T01:28:09.744Z,84.82
2018-02-19T01:28:58.814Z,84.83
2018-02-19T01:29:47.880Z,84.81
2018-02-19T01:30:36.943Z,84.88
2018-02-19T01:31:26.043Z,84.65
2018-02-19T01:32:15.135Z,83.88
2018-02-19T01:33:04.194Z,83.02
2018-02-19T01:33:53.252Z,82.81
2018-02-19T01:34:42.305Z,83.19
2018-02-19T01:35:31.372Z,82.83
2018-02-19T01:36:20.471Z,82.42
2018-02-19T01:37:09.527Z,82.27
2018-02-19T01:37:58.586Z,82.20
2018-02-19T01:38:47.641Z,81.77
2018-02-19T01:39:36.700Z,81.75
2018-02-19T01:40:25.847Z,81.63
2018-02-19T01:41:14.944Z,81.42
2018-02-19T01:42:04.862Z,81.10
2018-02-19T01:42:53.978Z,80.75
2018-02-19T01:43:43.137Z,80.79
2018-02-19T01:44:32.187Z,80.62
2018-02-19T01:45:21.764Z,80.60
2018-02-19T01:46:10.847Z,80.54
2018-02-19T01:46:59.902Z,80.50
2018-02-19T01:47:48.956Z,80.27
2018-02-19T01:48:38.030Z,80.10
2018-02-19T01:49:27.209Z,80.09
2018-02-19T01:50:16.279Z,80.12
2018-02-19T01:51:05.335Z,79.99
2018-02-19T01:51:54.424Z,79.86
2018-02-19T01:52:43.551Z,80.02
2018-02-19T01:53:32.618Z,80.35
2018-02-19T01:54:21.704Z,80.45
2018-02-19T01:55:10.795Z,80.43
2018-02-19T01:55:59.860Z,80.61
2018-02-19T01:56:48.902Z,80.48
2018-02-19T01:57:37.978Z,80.57
2018-02-19T01:58:27.581Z,80.82
2018-02-19T01:59:16.640Z,80.84
2018-02-19T02:00:05.836Z,80.85
2018-02-19T02:00:54.926Z,80.88
2018-02-19T02:01:43.970Z,81.29
2018-02-19T02:02:33.073Z,81.52
2018-02-19T02:03:22.156Z,81.48
2018-02-19T02:04:11.217Z,81.35
2018-02-19T02:05:00.269Z,81.24
2018-02-19T02:05:50.146Z,81.37
2018-02-19T02:06:39.206Z,81.40
2018-02-19T02:07:28.261Z,81.21
2018-02-19T02:08:20.489Z,81.48
2018-02-19T02:09:09.573Z,81.39
2018-02-19T02:09:58.817Z,81.40
2018-02-19T02:10:47.888Z,81.51
2018-02-19T02:11:36.997Z,81.84
2018-02-19T02:12:26.048Z,81.72
2018-02-19T02:13:15.107Z,82.19
2018-02-19T02:14:04.168Z,82.68
2018-02-19T02:14:53.218Z,82.89
2018-02-19T02:15:42.261Z,83.02
2018-02-19T02:16:31.335Z,82.92
2018-02-19T02:17:20.837Z,82.82
2018-02-19T02:18:09.895Z,81.94
2018-02-19T02:18:58.968Z,82.00
2018-02-19T02:19:48.016Z,81.98
2018-02-19T02:20:37.066Z,82.69
2018-02-19T02:21:26.135Z,83.20
2018-02-19T02:22:15.166Z,83.59
2018-02-19T02:23:04.329Z,83.89
2018-02-19T02:23:53.373Z,83.90
2018-02-19T02:24:42.436Z,83.48
2018-02-19T02:25:31.504Z,82.67
2018-02-19T02:26:20.566Z,82.11
2018-02-19T02:27:09.838Z,82.14
2018-02-19T02:27:59.230Z,82.60
2018-02-19T02:28:48.334Z,83.17
2018-02-19T02:29:37.368Z,83.43
2018-02-19T02:30:26.430Z,83.82
2018-02-19T02:31:15.494Z,84.03
2018-02-19T02:32:04.559Z,83.97
2018-02-19T02:32:53.626Z,83.98
2018-02-19T02:33:42.681Z,84.19
2018-02-19T02:34:31.973Z,84.23
2018-02-19T02:35:21.020Z,83.33
2018-02-19T02:36:10.128Z,82.81
2018-02-19T02:36:59.206Z,82.60
2018-02-19T02:37:48.278Z,82.59
2018-02-19T02:38:37.342Z,82.79
2018-02-19T02:39:26.656Z,83.21
2018-02-19T02:40:15.721Z,83.34
2018-02-19T02:41:04.785Z,83.42
2018-02-19T02:41:53.931Z,83.72
2018-02-19T02:42:43.017Z,83.89
2018-02-19T02:43:32.074Z,83.99
2018-02-19T02:44:21.128Z,84.13
2018-02-19T02:45:10.178Z,84.20
2018-02-19T02:45:59.235Z,84.21
2018-02-19T02:46:48.315Z,83.11
2018-02-19T02:47:37.477Z,82.28
2018-02-19T02:48:26.526Z,82.24
2018-02-19T02:49:15.591Z,82.26
2018-02-19T02:50:04.640Z,82.45
2018-02-19T02:50:53.706Z,82.57
2018-02-19T02:51:42.761Z,82.58
2018-02-19T02:52:31.824Z,82.70
2018-02-19T02:53:20.915Z,82.82
2018-02-19T02:54:09.964Z,82.54
2018-02-19T02:54:59.024Z,82.62
2018-02-19T02:55:48.069Z,82.92
2018-02-19T02:56:37.139Z,83.12
2018-02-19T02:57:26.200Z,83.16
2018-02-19T02:58:15.257Z,83.04
2018-02-19T02:59:04.414Z,83.09
2018-02-19T02:59:53.491Z,83.10
2018-02-19T03:00:42.588Z,83.36
2018-02-19T03:01:31.662Z,83.01
2018-02-19T03:02:20.708Z,83.26
2018-02-19T03:03:09.773Z,83.73
2018-02-19T03:03:58.844Z,84.05
2018-02-19T03:04:47.936Z,84.44
2018-02-19T03:05:36.991Z,84.83
2018-02-19T03:06:26.052Z,85.14
2018-02-19T03:07:15.136Z,85.35
2018-02-19T03:08:04.193Z,85.64
2018-02-19T03:08:53.508Z,85.59
2018-02-19T03:09:42.608Z,85.60
2018-02-19T03:10:32.003Z,85.60
2018-02-19T03:11:21.093Z,85.42
2018-02-19T03:12:10.156Z,85.47
2018-02-19T03:12:59.272Z,85.43
2018-02-19T03:13:48.334Z,85.23
2018-02-19T03:14:37.397Z,84.62
2018-02-19T03:15:26.440Z,83.63
2018-02-19T03:16:15.503Z,83.56
2018-02-19T03:17:04.570Z,83.92
2018-02-19T03:17:53.624Z,83.45
2018-02-19T03:18:42.782Z,82.78
2018-02-19T03:19:31.846Z,82.60
2018-02-19T03:20:20.904Z,82.61
2018-02-19T03:21:09.963Z,82.80
2018-02-19T03:21:59.042Z,82.79
2018-02-19T03:22:48.082Z,82.76
2018-02-19T03:23:37.135Z,82.64
2018-02-19T03:24:26.259Z,82.81
2018-02-19T03:25:15.307Z,82.83
2018-02-19T03:26:04.352Z,82.57
2018-02-19T03:26:53.417Z,82.46
2018-02-19T03:27:42.487Z,82.41
2018-02-19T03:28:31.564Z,82.56
2018-02-19T03:29:20.621Z,82.67
2018-02-19T03:30:09.708Z,82.96
2018-02-19T03:30:58.764Z,83.17
2018-02-19T03:31:47.821Z,83.29
2018-02-19T03:32:36.874Z,83.40
2018-02-19T03:33:25.939Z,83.41
2018-02-19T03:34:14.995Z,83.28
2018-02-19T03:35:04.052Z,83.33
2018-02-19T03:35:53.217Z,83.40
2018-02-19T03:36:42.269Z,83.34
2018-02-19T03:37:31.340Z,83.30
2018-02-19T03:38:20.391Z,82.87
2018-02-19T03:39:09.447Z,82.81
2018-02-19T03:39:58.504Z,82.97
2018-02-19T03:40:47.566Z,83.05
2018-02-19T03:41:37.203Z,82.86
2018-02-19T03:42:26.310Z,82.93
2018-02-19T03:43:15.359Z,82.88
2018-02-19T03:44:04.427Z,82.38
2018-02-19T03:44:53.497Z,81.32
2018-02-19T03:45:42.586Z,80.98
2018-02-19T03:46:31.665Z,80.65
2018-02-19T03:47:20.741Z,80.51
2018-02-19T03:48:09.817Z,80.89
2018-02-19T03:48:58.878Z,81.48
2018-02-19T03:49:47.931Z,81.79
2018-02-19T03:50:36.984Z,82.08
2018-02-19T03:51:26.158Z,82.57
2018-02-19T03:52:15.207Z,83.02
2018-02-19T03:53:04.257Z,83.51
2018-02-19T03:53:53.328Z,84.25
2018-02-19T03:54:42.390Z,84.48
2018-02-19T03:55:31.449Z,84.88
2018-02-19T03:56:20.519Z,85.10
2018-02-19T03:57:09.625Z,85.02
2018-02-19T03:57:58.906Z,85.20
2018-02-19T03:58:47.960Z,85.57
2018-02-19T03:59:37.010Z,85.48
2018-02-19T04:00:26.067Z,85.49
2018-02-19T04:01:15.165Z,85.25
2018-02-19T04:02:04.277Z,84.89
2018-02-19T04:02:54.063Z,84.76
2018-02-19T04:03:43.156Z,84.51
2018-02-19T04:04:32.262Z,84.50
2018-02-19T04:05:21.336Z,84.48
2018-02-19T04:06:10.512Z,84.32
2018-02-19T04:06:59.619Z,84.41
2018-02-19T04:07:49.108Z,84.29
2018-02-19T04:08:38.226Z,83.67
2018-02-19T04:09:27.281Z,82.98
2018-02-19T04:10:16.427Z,82.58
2018-02-19T04:11:05.474Z,82.16
2018-02-19T04:11:54.538Z,81.83
2018-02-19T04:12:43.599Z,82.06
2018-02-19T04:13:35.363Z,81.95
2018-02-19T04:14:24.442Z,81.84
2018-02-19T04:15:13.514Z,81.72
2018-02-19T04:16:02.860Z,81.73
2018-02-19T04:16:51.917Z,82.15
2018-02-19T04:17:41.015Z,82.69
2018-02-19T04:18:30.070Z,82.74
2018-02-19T04:19:19.152Z,82.64
2018-02-19T04:20:08.202Z,82.11
2018-02-19T04:20:57.263Z,82.12
2018-02-19T04:21:47.117Z,82.01
2018-02-19T04:22:36.173Z,81.62
2018-02-19T04:23:25.236Z,81.21
2018-02-19T04:24:14.279Z,81.14
2018-02-19T04:25:06.422Z,80.56
2018-02-19T04:25:55.487Z,81.03
2018-02-19T04:26:44.539Z,81.30
2018-02-19T04:27:33.605Z,81.46
2018-02-19T04:28:22.666Z,80.66
2018-02-19T04:29:11.713Z,80.94
2018-02-19T04:30:00.762Z,82.06
2018-02-19T04:30:49.960Z,82.55
2018-02-19T04:31:39.015Z,82.82
2018-02-19T04:32:28.065Z,82.85
2018-02-19T04:33:17.135Z,82.91
2018-02-19T04:34:06.182Z,82.61
2018-02-19T04:34:55.240Z,81.81
2018-02-19T04:35:44.281Z,81.27
2018-02-19T04:36:33.378Z,80.98
2018-02-19T04:37:22.424Z,80.87
2018-02-19T04:38:11.493Z,81.35
2018-02-19T04:39:00.555Z,81.75
2018-02-19T04:39:49.610Z,82.00
2018-02-19T04:40:38.668Z,82.37
2018-02-19T04:41:27.716Z,82.15
2018-02-19T04:42:16.818Z,82.43
2018-02-19T04:43:06.281Z,82.82
2018-02-19T04:43:55.355Z,81.88
2018-02-19T04:44:45.357Z,81.61
2018-02-19T04:45:35.998Z,81.83
2018-02-19T04:46:25.072Z,81.89
2018-02-19T04:47:14.149Z,81.85
2018-02-19T04:48:04.014Z,81.78
2018-02-19T04:48:53.132Z,81.85
2018-02-19T04:49:42.252Z,81.68
2018-02-19T04:50:31.335Z,81.66
2018-02-19T04:51:20.510Z,81.50
2018-02-19T04:52:09.596Z,80.38
2018-02-19T04:52:58.650Z,80.64
2018-02-19T04:53:47.717Z,80.74
2018-02-19T04:54:36.781Z,80.79
2018-02-19T04:55:25.847Z,80.83
2018-02-19T04:56:14.910Z,79.84
2018-02-19T04:57:04.022Z,78.75
2018-02-19T04:57:53.099Z,78.46
2018-02-19T04:58:42.168Z,78.72
2018-02-19T04:59:31.364Z,78.67
2018-02-19T05:00:20.452Z,78.15
2018-02-19T05:01:09.549Z,77.85
2018-02-19T05:01:58.624Z,78.03
2018-02-19T05:02:47.688Z,78.45
2018-02-19T05:03:36.789Z,78.62
2018-02-19T05:04:25.857Z,79.13
2018-02-19T05:05:14.918Z,79.38
2018-02-19T05:06:03.979Z,79.46
2018-02-19T05:06:53.046Z,79.73
2018-02-19T05:07:42.119Z,79.69
2018-02-19T05:08:31.238Z,79.96
2018-02-19T05:09:20.406Z,79.68
2018-02-19T05:10:09.497Z,79.48
2018-02-19T05:10:58.582Z,79.67
2018-02-19T05:11:47.652Z,79.76
2018-02-19T05:12:36.714Z,79.83
2018-02-19T05:13:25.781Z,79.97
2018-02-19T05:14:14.850Z,80.25
2018-02-19T05:15:05.116Z,80.52
2018-02-19T05:15:54.809Z,80.56
2018-02-19T05:16:43.997Z,80.66
2018-02-19T05:17:33.116Z,80.75
2018-02-19T05:18:22.253Z,80.83
2018-02-19T05:19:11.315Z,81.17
2018-02-19T05:20:00.410Z,81.41
2018-02-19T05:20:49.475Z,81.19
2018-02-19T05:21:38.721Z,80.77
2018-02-19T05:22:27.790Z,80.33
2018-02-19T05:23:16.869Z,79.99
2018-02-19T05:24:05.989Z,79.75
2018-02-19T05:24:55.053Z,79.65
2018-02-19T05:25:44.268Z,79.75
2018-02-19T05:26:33.347Z,79.63
2018-02-19T05:27:22.452Z,80.13
2018-02-19T05:28:11.575Z,80.78
2018-02-19T05:29:00.748Z,81.15
2018-02-19T05:29:49.824Z,81.38
2018-02-19T05:30:38.895Z,81.18
2018-02-19T05:31:27.991Z,80.91
2018-02-19T05:32:17.062Z,80.96
2018-02-19T05:33:06.143Z,81.00
2018-02-19T05:33:55.222Z,81.03
2018-02-19T05:34:44.765Z,80.59
2018-02-19T05:35:33.839Z,80.22
2018-02-19T05:36:22.906Z,80.10
2018-02-19T05:37:11.984Z,79.86
2018-02-19T05:38:01.101Z,79.80
2018-02-19T05:38:50.205Z,79.77
2018-02-19T05:39:39.374Z,80.03
2018-02-19T05:40:28.449Z,79.93
2018-02-19T05:41:17.606Z,79.75
2018-02-19T05:42:06.659Z,79.83
2018-02-19T05:42:55.738Z,79.68
2018-02-19T05:43:44.808Z,79.73
2018-02-19T05:44:33.906Z,79.36
2018-02-19T05:45:23.007Z,79.35
2018-02-19T05:46:12.089Z,79.72
2018-02-19T05:47:01.192Z,79.67
2018-02-19T05:47:50.467Z,79.70
2018-02-19T05:48:39.620Z,79.73
2018-02-19T05:49:28.729Z,80.01
2018-02-19T05:50:18.039Z,80.37
2018-02-19T05:51:07.117Z,80.62
2018-02-19T05:51:56.191Z,80.54
2018-02-19T05:52:45.286Z,80.47
2018-02-19T05:53:34.383Z,80.64
2018-02-19T05:54:23.488Z,80.58
2018-02-19T05:55:12.537Z,79.66
2018-02-19T05:56:04.012Z,78.91
2018-02-19T05:56:53.087Z,79.04
2018-02-19T05:57:42.145Z,79.48
2018-02-19T05:58:34.299Z,79.37
2018-02-19T05:59:23.403Z,79.17
2018-02-19T06:00:12.567Z,79.04
2018-02-19T06:01:01.634Z,78.82
2018-02-19T06:01:50.710Z,78.36
2018-02-19T06:02:39.822Z,78.40
2018-02-19T06:03:28.894Z,78.80
2018-02-19T06:04:17.961Z,78.42
2018-02-19T06:05:07.631Z,78.20
2018-02-19T06:05:56.786Z,77.94
2018-02-19T06:06:45.893Z,77.70
2018-02-19T06:07:34.962Z,78.44
2018-02-19T06:08:24.079Z,79.02
2018-02-19T06:09:13.246Z,78.17
2018-02-19T06:10:02.350Z,77.34
2018-02-19T06:10:51.443Z,77.54
2018-02-19T06:11:40.575Z,78.40
2018-02-19T06:12:29.724Z,78.45
2018-02-19T06:13:18.770Z,77.86
2018-02-19T06:14:07.853Z,77.33
2018-02-19T06:14:56.907Z,76.96
2018-02-19T06:15:45.974Z,77.19
2018-02-19T06:16:35.120Z,77.30
2018-02-19T06:17:24.221Z,76.78
2018-02-19T06:18:13.278Z,76.41
2018-02-19T06:19:02.351Z,76.26
2018-02-19T06:19:51.426Z,76.18
2018-02-19T06:20:40.501Z,75.96
2018-02-19T06:21:29.587Z,75.91
2018-02-19T06:22:18.660Z,75.65
2018-02-19T06:23:08.499Z,75.69
2018-02-19T06:23:57.627Z,75.78
2018-02-19T06:24:46.758Z,75.74
2018-02-19T06:25:35.834Z,75.16
2018-02-19T06:26:24.900Z,75.21
2018-02-19T06:27:13.996Z,75.10
2018-02-19T06:28:03.161Z,75.32
2018-02-19T06:28:52.220Z,75.36
2018-02-19T06:29:41.330Z,75.59
2018-02-19T06:30:30.425Z,75.85
2018-02-19T06:31:19.549Z,75.89
2018-02-19T06:32:08.605Z,75.98
2018-02-19T06:32:57.676Z,76.15
2018-02-19T06:33:46.793Z,75.81
2018-02-19T06:34:35.893Z,75.39
2018-02-19T06:35:24.997Z,75.36
2018-02-19T06:36:14.102Z,75.10
2018-02-19T06:37:03.179Z,75.23
2018-02-19T06:37:52.290Z,75.12
2018-02-19T06:38:41.344Z,74.61
2018-02-19T06:39:30.467Z,74.39
2018-02-19T06:40:19.550Z,74.79
2018-02-19T06:41:08.637Z,74.77
2018-02-19T06:41:57.699Z,74.53
2018-02-19T06:42:46.756Z,74.43
2018-02-19T06:43:35.828Z,73.90
2018-02-19T06:44:24.942Z,73.92
2018-02-19T06:45:14.176Z,74.01
2018-02-19T06:46:03.249Z,73.70
2018-02-19T06:46:52.299Z,73.45
2018-02-19T06:47:41.376Z,73.68
2018-02-19T06:48:30.564Z,73.69
2018-02-19T06:49:19.649Z,73.83
2018-02-19T06:50:08.720Z,74.46
2018-02-19T06:50:57.927Z,73.80
2018-02-19T06:51:47.006Z,73.84
2018-02-19T06:52:36.080Z,73.74
2018-02-19T06:53:25.146Z,73.67
2018-02-19T06:54:14.221Z,73.00
2018-02-19T06:55:03.341Z,73.17
2018-02-19T06:55:52.442Z,72.95
2018-02-19T06:56:41.565Z,72.97
2018-02-19T06:57:30.688Z,73.01
2018-02-19T06:58:19.778Z,73.04
2018-02-19T06:59:08.850Z,73.39
2018-02-19T06:59:57.932Z,73.62
2018-02-19T07:00:47.001Z,74.20
2018-02-19T07:01:36.095Z,74.45
2018-02-19T07:02:25.272Z,74.78
2018-02-19T07:03:14.550Z,74.93
2018-02-19T07:04:03.664Z,75.45
2018-02-19T07:04:52.761Z,76.04
2018-02-19T07:05:41.837Z,75.88
2018-02-19T07:06:30.910Z,75.39
2018-02-19T07:07:19.995Z,75.47
2018-02-19T07:08:09.158Z,75.44
2018-02-19T07:08:58.228Z,75.67
2018-02-19T07:09:47.280Z,75.61
2018-02-19T07:10:36.343Z,75.63
2018-02-19T07:11:25.401Z,75.42
2018-02-19T07:12:14.505Z,74.63
2018-02-19T07:13:03.649Z,74.16
2018-02-19T07:13:52.747Z,73.78
2018-02-19T07:14:41.808Z,73.89
2018-02-19T07:15:30.916Z,73.97
2018-02-19T07:16:20.003Z,73.72
2018-02-19T07:17:09.085Z,73.73
2018-02-19T07:17:58.201Z,72.98
2018-02-19T07:18:47.263Z,72.09
2018-02-19T07:19:36.484Z,71.89
2018-02-19T07:20:25.634Z,71.93
2018-02-19T07:21:14.713Z,71.66
2018-02-19T07:22:03.761Z,71.36
2018-02-19T07:22:52.822Z,71.86
2018-02-19T07:23:41.879Z,71.07
2018-02-19T07:24:30.953Z,71.42
2018-02-19T07:25:20.480Z,71.61
2018-02-19T07:26:09.572Z,71.73
2018-02-19T07:26:58.836Z,71.11
2018-02-19T07:27:47.962Z,71.24
2018-02-19T07:28:37.012Z,71.21
2018-02-19T07:29:26.093Z,71.39
2018-02-19T07:30:15.212Z,71.46
2018-02-19T07:31:04.299Z,71.44
2018-02-19T07:31:53.374Z,71.50
2018-02-19T07:32:42.456Z,71.40
2018-02-19T07:33:31.540Z,71.03
2018-02-19T07:34:20.627Z,70.17
2018-02-19T07:35:09.689Z,70.79
2018-02-19T07:35:58.807Z,70.82
2018-02-19T07:36:47.886Z,71.41
2018-02-19T07:37:36.955Z,71.61
2018-02-19T07:38:26.010Z,71.70
2018-02-19T07:39:15.110Z,71.51
2018-02-19T07:40:04.259Z,70.83
2018-02-19T07:40:53.321Z,70.53
2018-02-19T07:41:42.371Z,70.54
2018-02-19T07:42:31.459Z,70.22
2018-02-19T07:43:20.618Z,70.92
2018-02-19T07:44:09.726Z,70.11
2018-02-19T07:44:58.823Z,69.16
2018-02-19T07:45:51.224Z,70.21
2018-02-19T07:46:40.279Z,69.76
2018-02-19T07:47:29.355Z,68.98
2018-02-19T07:48:18.417Z,69.96
2018-02-19T07:49:07.519Z,69.87
2018-02-19T07:49:56.615Z,70.52
2018-02-19T07:50:45.700Z,69.93
2018-02-19T07:51:34.884Z,70.49
2018-02-19T07:52:23.980Z,70.87
2018-02-19T07:53:13.135Z,69.49
2018-02-19T07:54:02.209Z,69.27
2018-02-19T07:54:51.280Z,69.67
2018-02-19T07:55:40.343Z,67.53
2018-02-19T07:56:29.396Z,69.61
2018-02-19T07:57:18.523Z,68.86
2018-02-19T07:58:07.592Z,69.19
2018-02-19T07:58:56.669Z,69.54
2018-02-19T07:59:45.736Z,68.83
2018-02-19T08:00:34.782Z,68.13
2018-02-19T08:01:24.001Z,68.55
2018-02-19T08:02:13.046Z,67.76
2018-02-19T08:03:02.135Z,68.17
2018-02-19T08:03:51.202Z,67.55
2018-02-19T08:04:40.270Z,66.75
2018-02-19T08:05:29.312Z,67.08
2018-02-19T08:06:18.405Z,67.21
2018-02-19T08:07:07.747Z,68.13
2018-02-19T08:07:56.867Z,67.81
2018-02-19T08:08:45.922Z,67.79
2018-02-19T08:09:34.998Z,67.80
2018-02-19T08:10:24.084Z,68.07
2018-02-19T08:11:13.171Z,68.18
2018-02-19T08:12:02.233Z,67.20
2018-02-19T08:12:51.301Z,66.53
2018-02-19T08:13:40.461Z,66.32
2018-02-19T08:14:30.477Z,66.10
2018-02-19T08:15:19.529Z,66.14
2018-02-19T08:16:08.602Z,67.05
2018-02-19T08:16:57.853Z,67.29
2018-02-19T08:17:46.898Z,66.78
2018-02-19T08:18:35.953Z,66.86
2018-02-19T08:19:25.023Z,66.13
2018-02-19T08:20:14.085Z,66.06
2018-02-19T08:21:03.164Z,65.66
2018-02-19T08:21:52.249Z,64.70
2018-02-19T08:22:41.524Z,65.12
2018-02-19T08:23:30.611Z,65.12
2018-02-19T08:24:19.667Z,65.49
2018-02-19T08:25:08.754Z,65.83
2018-02-19T08:25:57.825Z,66.10
2018-02-19T08:26:46.878Z,66.26
2018-02-19T08:27:35.943Z,66.11
2018-02-19T08:28:24.997Z,65.17
2018-02-19T08:29:14.071Z,65.40
2018-02-19T08:30:03.128Z,66.94
2018-02-19T08:30:52.232Z,67.13
2018-02-19T08:31:41.310Z,65.60
2018-02-19T08:32:30.381Z,66.19
2018-02-19T08:33:19.589Z,65.80
2018-02-19T08:34:08.766Z,66.99
2018-02-19T08:34:57.838Z,67.20
2018-02-19T08:35:46.914Z,66.32
2018-02-19T08:36:36.041Z,66.40
2018-02-19T08:37:25.094Z,66.23
2018-02-19T08:38:14.162Z,66.73
2018-02-19T08:39:03.214Z,67.63
2018-02-19T08:39:52.273Z,66.11
2018-02-19T08:40:41.348Z,65.29
2018-02-19T08:41:30.456Z,66.22
2018-02-19T08:42:19.707Z,66.24
2018-02-19T08:43:08.856Z,65.48
2018-02-19T08:43:58.014Z,64.50
2018-02-19T08:44:47.072Z,64.39
2018-02-19T08:45:36.125Z,65.29
2018-02-19T08:46:25.192Z,64.57
2018-02-19T08:47:14.238Z,64.04
2018-02-19T08:48:03.369Z,64.02
2018-02-19T08:48:52.577Z,63.83
2018-02-19T08:49:41.693Z,64.38
2018-02-19T08:50:30.826Z,64.62
2018-02-19T08:51:19.903Z,64.58
2018-02-19T08:52:08.965Z,62.75
2018-02-19T08:52:58.062Z,63.51
2018-02-19T08:53:47.144Z,63.41
2018-02-19T08:54:36.175Z,62.29
2018-02-19T08:55:25.289Z,62.83
2018-02-19T08:56:14.353Z,63.88
2018-02-19T08:57:03.431Z,64.02
2018-02-19T08:57:52.506Z,65.61
2018-02-19T08:58:41.637Z,65.68
2018-02-19T08:59:30.724Z,64.76
2018-02-19T09:00:20.437Z,64.52
2018-02-19T09:01:09.589Z,64.77
2018-02-19T09:01:58.640Z,63.47
2018-02-19T09:02:47.715Z,62.36
2018-02-19T09:03:36.805Z,63.14
2018-02-19T09:04:26.337Z,63.30
2018-02-19T09:05:15.479Z,62.85
2018-02-19T09:06:04.526Z,60.49
2018-02-19T09:06:53.597Z,61.20
2018-02-19T09:07:42.656Z,61.14
2018-02-19T09:08:31.717Z,60.37
2018-02-19T09:09:20.777Z,60.18
2018-02-19T09:10:09.967Z,60.02
2018-02-19T09:10:59.180Z,60.65
2018-02-19T09:11:48.239Z,60.23
2018-02-19T09:12:37.593Z,58.94
2018-02-19T09:13:26.760Z,60.32
2018-02-19T09:14:15.873Z,61.55
2018-02-19T09:15:04.949Z,60.23
2018-02-19T09:15:54.094Z,59.89
2018-02-19T09:16:43.180Z,61.15
2018-02-19T09:17:32.256Z,61.61
2018-02-19T09:18:21.333Z,61.77
2018-02-19T09:19:10.456Z,61.06
2018-02-19T09:19:59.605Z,61.37
2018-02-19T09:20:48.642Z,63.03
2018-02-19T09:21:37.738Z,62.93
2018-02-19T09:22:26.973Z,61.78
2018-02-19T09:23:16.023Z,62.52
2018-02-19T09:24:05.084Z,61.65
2018-02-19T09:24:54.152Z,62.43
2018-02-19T09:25:43.248Z,63.20
2018-02-19T09:26:32.322Z,61.97
2018-02-19T09:27:21.380Z,61.60
2018-02-19T09:28:11.171Z,60.78
2018-02-19T09:29:00.266Z,61.05
2018-02-19T09:29:49.380Z,61.17
2018-02-19T09:30:38.456Z,60.33
2018-02-19T09:31:27.515Z,59.61
2018-02-19T09:32:16.591Z,59.62
2018-02-19T09:33:05.656Z,58.36
2018-02-19T09:33:54.757Z,59.00
2018-02-19T09:34:43.810Z,59.56
2018-02-19T09:35:32.940Z,58.36
2018-02-19T09:36:22.000Z,58.22
2018-02-19T09:37:11.098Z,58.13
2018-02-19T09:38:00.217Z,58.34
2018-02-19T09:38:49.268Z,58.52
2018-02-19T09:39:38.378Z,57.19
2018-02-19T09:40:27.572Z,58.30
2018-02-19T09:41:16.628Z,58.83
2018-02-19T09:42:05.677Z,58.75
2018-02-19T09:42:54.745Z,58.75
2018-02-19T09:43:43.841Z,58.84
2018-02-19T09:44:32.925Z,59.45
2018-02-19T09:45:22.028Z,59.68
2018-02-19T09:46:11.222Z,59.44
2018-02-19T09:47:00.287Z,57.96
2018-02-19T09:47:49.400Z,57.78
2018-02-19T09:48:38.508Z,57.90
2018-02-19T09:49:27.513Z,58.39
2018-02-19T09:50:16.596Z,58.21
2018-02-19T09:51:05.655Z,56.83
2018-02-19T09:51:54.779Z,58.21
2018-02-19T09:52:43.833Z,57.59
2018-02-19T09:53:32.969Z,56.90
2018-02-19T09:54:22.110Z,57.73
2018-02-19T09:55:11.178Z,57.64
2018-02-19T09:56:00.262Z,57.94
2018-02-19T09:56:49.331Z,58.38
2018-02-19T09:57:38.444Z,56.55
2018-02-19T09:58:27.614Z,57.59
2018-02-19T09:59:16.679Z,57.77
2018-02-19T10:00:05.830Z,58.13
2018-02-19T10:00:54.911Z,58.72
2018-02-19T10:01:43.963Z,58.47
2018-02-19T10:02:33.041Z,58.70
2018-02-19T10:03:22.364Z,58.02
2018-02-19T10:04:11.444Z,57.66
2018-02-19T10:05:00.490Z,57.31
2018-02-19T10:05:49.549Z,57.58
2018-02-19T10:06:38.610Z,57.31
2018-02-19T10:07:27.659Z,56.71
2018-02-19T10:08:16.747Z,57.17
2018-02-19T10:09:05.854Z,56.81
2018-02-19T10:09:54.928Z,55.91
2018-02-19T10:10:43.995Z,56.71
2018-02-19T10:11:33.082Z,57.30
2018-02-19T10:12:22.138Z,57.38
2018-02-19T10:13:11.249Z,56.91
2018-02-19T10:14:00.302Z,56.86
2018-02-19T10:14:49.611Z,56.46
2018-02-19T10:15:38.664Z,56.57
2018-02-19T10:16:27.733Z,55.73
2018-02-19T10:17:17.057Z,55.68
2018-02-19T10:18:06.160Z,57.28
2018-02-19T10:18:55.463Z,55.90
2018-02-19T10:19:44.558Z,56.81
2018-02-19T10:20:33.777Z,56.14
2018-02-19T10:21:22.846Z,55.81
2018-02-19T10:22:11.897Z,56.77
2018-02-19T10:23:01.040Z,56.87
2018-02-19T10:23:50.109Z,56.60
2018-02-19T10:24:39.184Z,56.21
2018-02-19T10:25:28.281Z,57.10
2018-02-19T10:26:17.882Z,57.37
2018-02-19T10:27:06.959Z,56.74
2018-02-19T10:27:56.016Z,58.11
2018-02-19T10:28:45.147Z,56.37
2018-02-19T10:29:34.201Z,55.47
2018-02-19T10:30:23.352Z,56.95
2018-02-19T10:31:12.386Z,55.85
2018-02-19T10:32:01.508Z,57.13
2018-02-19T10:32:50.751Z,56.64